sensor_id;sensor_type;location;lat;lon;timestamp;pressure;altitude;pressure_sealevel;temperature;humidity
13709;BME280;54933;51.908;7.730;2023-07-20T00:00:22;100691.56;;;24.85;72.34
13709;BME280;54933;51.908;7.730;2023-07-20T00:02:50;100694.28;;;24.85;72.90
13709;BME280;54933;51.908;7.730;2023-07-20T00:05:15;100681.78;;;24.84;72.69
13709;BME280;54933;51.908;7.730;2023-07-20T00:07:43;100691.56;;;24.85;72.75
13709;BME280;54933;51.908;7.730;2023-07-20T00:10:09;100686.13;;;24.85;72.88
13709;BME280;54933;51.908;7.730;2023-07-20T00:12:34;100680.69;;;24.85;72.71
13709;BME280;54933;51.908;7.730;2023-07-20T00:15:00;100684.25;;;24.85;73.01
13709;BME280;54933;51.908;7.730;2023-07-20T00:17:25;100678.81;;;24.85;73.03
13709;BME280;54933;51.908;7.730;2023-07-20T00:19:50;100676.91;;;24.86;72.76
13709;BME280;54933;51.908;7.730;2023-07-20T00:22:15;100673.13;;;24.87;72.87
13709;BME280;54933;51.908;7.730;2023-07-20T00:24:41;100677.75;;;24.86;72.78
13709;BME280;54933;51.908;7.730;2023-07-20T00:27:06;100675.03;;;24.86;72.82
13709;BME280;54933;51.908;7.730;2023-07-20T00:29:31;100673.13;;;24.87;72.75
13709;BME280;54933;51.908;7.730;2023-07-20T00:31:56;100673.97;;;24.87;72.75
13709;BME280;54933;51.908;7.730;2023-07-20T00:34:23;100674.78;;;24.88;72.93
13709;BME280;54933;51.908;7.730;2023-07-20T00:36:48;100669.59;;;24.86;73.03
13709;BME280;54933;51.908;7.730;2023-07-20T00:39:14;100673.13;;;24.87;73.07
13709;BME280;54933;51.908;7.730;2023-07-20T00:41:39;100673.13;;;24.87;73.11
13709;BME280;54933;51.908;7.730;2023-07-20T00:44:05;100675.84;;;24.87;72.75
13709;BME280;54933;51.908;7.730;2023-07-20T00:46:30;100673.13;;;24.87;72.91
13709;BME280;54933;51.908;7.730;2023-07-20T00:48:57;100669.59;;;24.86;73.16
13709;BME280;54933;51.908;7.730;2023-07-20T00:51:23;100676.69;;;24.87;72.81
13709;BME280;54933;51.908;7.730;2023-07-20T00:53:50;100664.38;;;24.85;72.93
13709;BME280;54933;51.908;7.730;2023-07-20T00:56:15;100665.22;;;24.85;72.76
13709;BME280;54933;51.908;7.730;2023-07-20T00:58:41;100666.06;;;24.86;72.72
13709;BME280;54933;51.908;7.730;2023-07-20T01:01:06;100664.38;;;24.85;72.92
13709;BME280;54933;51.908;7.730;2023-07-20T01:03:32;100672.53;;;24.85;72.88
13709;BME280;54933;51.908;7.730;2023-07-20T01:08:47;100667.09;;;24.85;72.81
13709;BME280;54933;51.908;7.730;2023-07-20T01:11:38;100657.31;;;24.84;72.66
13709;BME280;54933;51.908;7.730;2023-07-20T01:14:08;100662.75;;;24.84;72.75
13709;BME280;54933;51.908;7.730;2023-07-20T01:16:34;100670.66;;;24.85;72.85
13709;BME280;54933;51.908;7.730;2023-07-20T01:18:59;100656.00;;;24.86;72.79
13709;BME280;54933;51.908;7.730;2023-07-20T01:21:31;100661.44;;;24.86;72.99
13709;BME280;54933;51.908;7.730;2023-07-20T01:26:41;100666.06;;;24.86;72.70
13709;BME280;54933;51.908;7.730;2023-07-20T01:29:50;100660.38;;;24.87;72.97
13709;BME280;54933;51.908;7.730;2023-07-20T01:32:23;100659.53;;;24.87;72.91
13709;BME280;54933;51.908;7.730;2023-07-20T01:34:52;100666.88;;;24.86;72.98
13709;BME280;54933;51.908;7.730;2023-07-20T01:37:17;100666.88;;;24.86;72.62
13709;BME280;54933;51.908;7.730;2023-07-20T01:39:45;100664.97;;;24.87;72.79
13709;BME280;54933;51.908;7.730;2023-07-20T01:42:11;100665.81;;;24.87;73.10
13709;BME280;54933;51.908;7.730;2023-07-20T01:44:38;100656.00;;;24.86;73.00
13709;BME280;54933;51.908;7.730;2023-07-20T01:47:03;100655.75;;;24.88;72.88
13709;BME280;54933;51.908;7.730;2023-07-20T01:49:29;100659.53;;;24.87;72.89
13709;BME280;54933;51.908;7.730;2023-07-20T01:51:54;100654.09;;;24.87;72.98
13709;BME280;54933;51.908;7.730;2023-07-20T01:54:19;100651.38;;;24.87;72.73
13709;BME280;54933;51.908;7.730;2023-07-20T01:56:45;100653.03;;;24.88;72.87
13709;BME280;54933;51.908;7.730;2023-07-20T01:59:10;100653.84;;;24.88;73.01
13709;BME280;54933;51.908;7.730;2023-07-20T02:01:35;100657.66;;;24.87;72.98
13709;BME280;54933;51.908;7.730;2023-07-20T02:04:00;100653.84;;;24.88;73.02
13709;BME280;54933;51.908;7.730;2023-07-20T02:06:26;100646.78;;;24.87;72.85
13709;BME280;54933;51.908;7.730;2023-07-20T02:08:51;100647.59;;;24.88;72.98
13709;BME280;54933;51.908;7.730;2023-07-20T02:11:16;100650.31;;;24.88;73.01
13709;BME280;54933;51.908;7.730;2023-07-20T02:13:41;100653.03;;;24.88;73.02
13709;BME280;54933;51.908;7.730;2023-07-20T02:16:07;100653.03;;;24.88;73.04
13709;BME280;54933;51.908;7.730;2023-07-20T02:18:32;100660.13;;;24.89;72.97
13709;BME280;54933;51.908;7.730;2023-07-20T02:20:58;100653.03;;;24.88;72.90
13709;BME280;54933;51.908;7.730;2023-07-20T02:23:24;100648.41;;;24.88;73.07
13709;BME280;54933;51.908;7.730;2023-07-20T02:25:49;100653.03;;;24.88;72.93
13709;BME280;54933;51.908;7.730;2023-07-20T02:28:14;100663.91;;;24.88;72.84
13709;BME280;54933;51.908;7.730;2023-07-20T02:30:40;100669.34;;;24.88;72.92
13709;BME280;54933;51.908;7.730;2023-07-20T02:33:05;100672.06;;;24.88;73.13
13709;BME280;54933;51.908;7.730;2023-07-20T02:35:32;100664.97;;;24.87;73.05
13709;BME280;54933;51.908;7.730;2023-07-20T02:37:57;100671.50;;;24.86;72.94
13709;BME280;54933;51.908;7.730;2023-07-20T02:40:22;100675.03;;;24.86;73.02
13709;BME280;54933;51.908;7.730;2023-07-20T02:42:48;100676.91;;;24.86;73.15
13709;BME280;54933;51.908;7.730;2023-07-20T02:45:13;100678.56;;;24.87;73.18
13709;BME280;54933;51.908;7.730;2023-07-20T02:47:38;100678.56;;;24.87;73.12
13709;BME280;54933;51.908;7.730;2023-07-20T02:50:07;100676.91;;;24.86;73.05
13709;BME280;54933;51.908;7.730;2023-07-20T02:52:33;100676.09;;;24.85;72.88
13709;BME280;54933;51.908;7.730;2023-07-20T02:54:58;100681.28;;;24.87;72.75
13709;BME280;54933;51.908;7.730;2023-07-20T02:57:23;100675.25;;;24.85;72.86
13709;BME280;54933;51.908;7.730;2023-07-20T02:59:48;100683.19;;;24.86;73.03
13709;BME280;54933;51.908;7.730;2023-07-20T03:02:14;100677.75;;;24.86;72.92
13709;BME280;54933;51.908;7.730;2023-07-20T03:04:39;100678.81;;;24.85;72.77
13709;BME280;54933;51.908;7.730;2023-07-20T03:07:05;100690.50;;;24.86;73.14
13709;BME280;54933;51.908;7.730;2023-07-20T03:09:30;100691.56;;;24.85;72.84
13709;BME280;54933;51.908;7.730;2023-07-20T03:11:56;100697.00;;;24.85;72.64
13709;BME280;54933;51.908;7.730;2023-07-20T03:14:21;100694.28;;;24.85;73.01
13709;BME280;54933;51.908;7.730;2023-07-20T03:16:46;100697.59;;;24.87;72.99
13709;BME280;54933;51.908;7.730;2023-07-20T03:19:11;100701.13;;;24.87;73.00
13709;BME280;54933;51.908;7.730;2023-07-20T03:21:37;100709.28;;;24.87;72.97
13709;BME280;54933;51.908;7.730;2023-07-20T03:24:06;100709.28;;;24.87;72.99
13709;BME280;54933;51.908;7.730;2023-07-20T03:26:31;100701.97;;;24.88;73.03
13709;BME280;54933;51.908;7.730;2023-07-20T03:28:57;100703.63;;;24.89;73.37
13709;BME280;54933;51.908;7.730;2023-07-20T03:31:22;100702.22;;;24.86;73.00
13709;BME280;54933;51.908;7.730;2023-07-20T03:33:47;100716.63;;;24.87;73.24
13709;BME280;54933;51.908;7.730;2023-07-20T03:36:12;100713.91;;;24.87;72.90
13709;BME280;54933;51.908;7.730;2023-07-20T03:38:38;100694.06;;;24.86;73.32
13709;BME280;54933;51.908;7.730;2023-07-20T03:41:03;100704.69;;;24.88;73.06
13709;BME280;54933;51.908;7.730;2023-07-20T03:43:28;100709.28;;;24.87;73.15
13709;BME280;54933;51.908;7.730;2023-07-20T03:45:54;100705.75;;;24.87;73.07
13709;BME280;54933;51.908;7.730;2023-07-20T03:48:21;100707.41;;;24.88;73.10
13709;BME280;54933;51.908;7.730;2023-07-20T03:50:48;100716.63;;;24.87;73.09
13709;BME280;54933;51.908;7.730;2023-07-20T03:53:14;100719.09;;;24.88;73.07
13709;BME280;54933;51.908;7.730;2023-07-20T03:55:40;100723.72;;;24.88;73.13
13709;BME280;54933;51.908;7.730;2023-07-20T03:58:07;100718.28;;;24.88;73.13
13709;BME280;54933;51.908;7.730;2023-07-20T04:00:32;100720.16;;;24.87;73.23
13709;BME280;54933;51.908;7.730;2023-07-20T04:02:58;100710.38;;;24.86;72.92
13709;BME280;54933;51.908;7.730;2023-07-20T04:05:24;100720.41;;;24.86;73.23
13709;BME280;54933;51.908;7.730;2023-07-20T04:07:49;100723.72;;;24.88;73.35
13709;BME280;54933;51.908;7.730;2023-07-20T04:10:14;100718.28;;;24.88;73.16
13709;BME280;54933;51.908;7.730;2023-07-20T04:12:39;100722.06;;;24.87;72.90
13709;BME280;54933;51.908;7.730;2023-07-20T04:15:05;100722.06;;;24.87;73.39
13709;BME280;54933;51.908;7.730;2023-07-20T04:17:31;100722.88;;;24.87;73.19
13709;BME280;54933;51.908;7.730;2023-07-20T04:19:56;100733.75;;;24.87;73.27
13709;BME280;54933;51.908;7.730;2023-07-20T04:22:21;100721.25;;;24.86;73.11
13709;BME280;54933;51.908;7.730;2023-07-20T04:24:47;100731.28;;;24.86;73.21
13709;BME280;54933;51.908;7.730;2023-07-20T04:27:12;100737.56;;;24.86;73.01
13709;BME280;54933;51.908;7.730;2023-07-20T04:29:38;100730.44;;;24.85;73.03
13709;BME280;54933;51.908;7.730;2023-07-20T04:32:03;100728.56;;;24.86;73.26
13709;BME280;54933;51.908;7.730;2023-07-20T04:34:29;100738.38;;;24.87;72.97
13709;BME280;54933;51.908;7.730;2023-07-20T04:36:54;100737.78;;;24.85;72.85
13709;BME280;54933;51.908;7.730;2023-07-20T04:39:19;100739.44;;;24.86;73.16
13709;BME280;54933;51.908;7.730;2023-07-20T04:41:44;100741.31;;;24.85;72.96
13709;BME280;54933;51.908;7.730;2023-07-20T04:44:10;100741.31;;;24.85;73.02
13709;BME280;54933;51.908;7.730;2023-07-20T04:46:35;100745.13;;;24.84;72.93
13709;BME280;54933;51.908;7.730;2023-07-20T04:49:00;100746.75;;;24.85;72.75
13709;BME280;54933;51.908;7.730;2023-07-20T04:51:26;100742.41;;;24.84;72.78
13709;BME280;54933;51.908;7.730;2023-07-20T04:53:52;100748.66;;;24.85;72.81
13709;BME280;54933;51.908;7.730;2023-07-20T04:56:17;100742.41;;;24.84;72.94
13709;BME280;54933;51.908;7.730;2023-07-20T04:58:42;100751.38;;;24.85;72.68
13709;BME280;54933;51.908;7.730;2023-07-20T05:01:08;100749.72;;;24.84;72.91
13709;BME280;54933;51.908;7.730;2023-07-20T05:03:33;100747.00;;;24.84;72.75
13709;BME280;54933;51.908;7.730;2023-07-20T05:05:58;100749.72;;;24.84;72.63
13709;BME280;54933;51.908;7.730;2023-07-20T05:08:24;100758.72;;;24.84;72.66
13709;BME280;54933;51.908;7.730;2023-07-20T05:10:49;100756.81;;;24.85;72.91
13709;BME280;54933;51.908;7.730;2023-07-20T05:13:15;100756.81;;;24.85;72.70
13709;BME280;54933;51.908;7.730;2023-07-20T05:15:40;100754.09;;;24.85;72.95
13709;BME280;54933;51.908;7.730;2023-07-20T05:18:05;100763.91;;;24.86;72.95
13709;BME280;54933;51.908;7.730;2023-07-20T05:20:31;100757.38;;;24.87;72.84
13709;BME280;54933;51.908;7.730;2023-07-20T05:22:58;100757.38;;;24.87;72.87
13709;BME280;54933;51.908;7.730;2023-07-20T05:25:23;100758.47;;;24.86;72.78
13709;BME280;54933;51.908;7.730;2023-07-20T05:27:49;100759.31;;;24.86;72.96
13709;BME280;54933;51.908;7.730;2023-07-20T05:30:14;100761.19;;;24.86;72.81
13709;BME280;54933;51.908;7.730;2023-07-20T05:32:39;100756.59;;;24.86;72.78
13709;BME280;54933;51.908;7.730;2023-07-20T05:35:05;100765.53;;;24.87;73.07
13709;BME280;54933;51.908;7.730;2023-07-20T05:37:31;100762.03;;;24.86;72.93
13709;BME280;54933;51.908;7.730;2023-07-20T05:39:57;100765.53;;;24.87;72.97
13709;BME280;54933;51.908;7.730;2023-07-20T05:42:22;100769.09;;;24.87;72.91
13709;BME280;54933;51.908;7.730;2023-07-20T05:44:47;100770.97;;;24.87;72.92
13709;BME280;54933;51.908;7.730;2023-07-20T05:47:13;100773.69;;;24.87;73.23
13709;BME280;54933;51.908;7.730;2023-07-20T05:49:38;100777.25;;;24.87;72.94
13709;BME280;54933;51.908;7.730;2023-07-20T05:52:04;100772.66;;;24.88;72.88
13709;BME280;54933;51.908;7.730;2023-07-20T05:54:29;100788.13;;;24.87;73.03
13709;BME280;54933;51.908;7.730;2023-07-20T05:56:54;100786.25;;;24.88;73.03
13709;BME280;54933;51.908;7.730;2023-07-20T05:59:20;100794.41;;;24.88;73.11
13709;BME280;54933;51.908;7.730;2023-07-20T06:01:45;100780.81;;;24.88;73.25
13709;BME280;54933;51.908;7.730;2023-07-20T06:04:13;100794.41;;;24.88;73.10
13709;BME280;54933;51.908;7.730;2023-07-20T06:06:38;100791.69;;;24.88;73.08
13709;BME280;54933;51.908;7.730;2023-07-20T06:09:04;100792.72;;;24.87;73.32
13709;BME280;54933;51.908;7.730;2023-07-20T06:11:30;100796.28;;;24.87;73.21
13709;BME280;54933;51.908;7.730;2023-07-20T06:13:56;100796.53;;;24.86;73.23
13709;BME280;54933;51.908;7.730;2023-07-20T06:16:21;100799.00;;;24.87;73.05
13709;BME280;54933;51.908;7.730;2023-07-20T06:18:47;100804.44;;;24.87;73.00
13709;BME280;54933;51.908;7.730;2023-07-20T06:21:12;100808.22;;;24.86;73.06
13709;BME280;54933;51.908;7.730;2023-07-20T06:23:38;100820.75;;;24.87;72.75
13709;BME280;54933;51.908;7.730;2023-07-20T06:26:03;100803.59;;;24.87;73.02
13709;BME280;54933;51.908;7.730;2023-07-20T06:28:28;100803.00;;;24.85;73.13
13709;BME280;54933;51.908;7.730;2023-07-20T06:31:00;100810.13;;;24.86;72.90
13709;BME280;54933;51.908;7.730;2023-07-20T06:33:25;100815.78;;;24.84;72.93
13709;BME280;54933;51.908;7.730;2023-07-20T06:35:50;100806.56;;;24.85;72.79
13709;BME280;54933;51.908;7.730;2023-07-20T06:38:17;100801.97;;;24.86;72.78
13709;BME280;54933;51.908;7.730;2023-07-20T06:40:43;100812.00;;;24.85;72.58
13709;BME280;54933;51.908;7.730;2023-07-20T06:43:08;100814.97;;;24.84;72.68
13709;BME280;54933;51.908;7.730;2023-07-20T06:45:33;100820.41;;;24.84;72.63
13709;BME280;54933;51.908;7.730;2023-07-20T06:47:58;100819.31;;;24.85;72.63
13709;BME280;54933;51.908;7.730;2023-07-20T06:50:24;100822.03;;;24.85;72.70
13709;BME280;54933;51.908;7.730;2023-07-20T06:52:49;100816.59;;;24.85;72.60
13709;BME280;54933;51.908;7.730;2023-07-20T06:55:14;100821.22;;;24.84;72.79
13709;BME280;54933;51.908;7.730;2023-07-20T06:57:40;100825.84;;;24.84;72.82
13709;BME280;54933;51.908;7.730;2023-07-20T07:00:06;100823.72;;;24.86;72.41
13709;BME280;54933;51.908;7.730;2023-07-20T07:02:32;100819.31;;;24.85;72.55
13709;BME280;54933;51.908;7.730;2023-07-20T07:04:57;100827.47;;;24.85;72.38
13709;BME280;54933;51.908;7.730;2023-07-20T07:07:22;100831.03;;;24.85;72.73
13709;BME280;54933;51.908;7.730;2023-07-20T07:09:47;100831.63;;;24.87;72.70
13709;BME280;54933;51.908;7.730;2023-07-20T07:12:13;100838.94;;;24.87;72.84
13709;BME280;54933;51.908;7.730;2023-07-20T07:14:39;100832.47;;;24.88;72.79
13709;BME280;54933;51.908;7.730;2023-07-20T07:17:04;100835.19;;;24.88;72.73
13709;BME280;54933;51.908;7.730;2023-07-20T07:19:30;100837.91;;;24.88;72.75
13709;BME280;54933;51.908;7.730;2023-07-20T07:21:55;100847.09;;;24.87;72.93
13709;BME280;54933;51.908;7.730;2023-07-20T07:24:20;100840.03;;;24.86;72.84
13709;BME280;54933;51.908;7.730;2023-07-20T07:26:45;100835.19;;;24.88;73.01
13709;BME280;54933;51.908;7.730;2023-07-20T07:29:11;100833.50;;;24.87;73.04
13709;BME280;54933;51.908;7.730;2023-07-20T07:31:36;100833.50;;;24.87;73.04
13709;BME280;54933;51.908;7.730;2023-07-20T07:34:02;100836.22;;;24.87;72.80
13709;BME280;54933;51.908;7.730;2023-07-20T07:36:28;100838.69;;;24.88;72.98
13709;BME280;54933;51.908;7.730;2023-07-20T07:38:53;100837.91;;;24.88;72.97
13709;BME280;54933;51.908;7.730;2023-07-20T07:41:18;100840.63;;;24.88;72.99
13709;BME280;54933;51.908;7.730;2023-07-20T07:43:44;100849.56;;;24.88;73.18
13709;BME280;54933;51.908;7.730;2023-07-20T07:46:09;100855.84;;;24.89;73.09
13709;BME280;54933;51.908;7.730;2023-07-20T07:48:34;100847.09;;;24.87;73.02
13709;BME280;54933;51.908;7.730;2023-07-20T07:50:59;100855.84;;;24.89;73.14
13709;BME280;54933;51.908;7.730;2023-07-20T07:53:25;100853.13;;;24.89;73.07
13709;BME280;54933;51.908;7.730;2023-07-20T07:55:51;100854.75;;;24.90;73.19
13709;BME280;54933;51.908;7.730;2023-07-20T07:58:16;100870.50;;;24.88;73.16
13709;BME280;54933;51.908;7.730;2023-07-20T08:00:42;100859.63;;;24.88;73.32
13709;BME280;54933;51.908;7.730;2023-07-20T08:03:08;100865.88;;;24.88;73.09
13709;BME280;54933;51.908;7.730;2023-07-20T08:05:33;100872.16;;;24.89;73.40
13709;BME280;54933;51.908;7.730;2023-07-20T08:08:00;100872.16;;;24.89;73.10
13709;BME280;54933;51.908;7.730;2023-07-20T08:10:25;100873.22;;;24.88;73.25
13709;BME280;54933;51.908;7.730;2023-07-20T08:12:50;100866.72;;;24.89;73.27
13709;BME280;54933;51.908;7.730;2023-07-20T08:15:16;100870.50;;;24.88;73.11
13709;BME280;54933;51.908;7.730;2023-07-20T08:17:42;100870.50;;;24.88;73.07
13709;BME280;54933;51.908;7.730;2023-07-20T08:20:09;100868.84;;;24.87;73.05
13709;BME280;54933;51.908;7.730;2023-07-20T08:22:37;100863.41;;;24.87;73.12
13709;BME280;54933;51.908;7.730;2023-07-20T08:25:03;100862.38;;;24.88;72.95
13709;BME280;54933;51.908;7.730;2023-07-20T08:27:28;100864.25;;;24.87;72.96
13709;BME280;54933;51.908;7.730;2023-07-20T08:29:54;100863.41;;;24.87;73.08
13709;BME280;54933;51.908;7.730;2023-07-20T08:32:19;100865.31;;;24.86;72.93
13709;BME280;54933;51.908;7.730;2023-07-20T08:34:44;100866.38;;;24.85;72.83
13709;BME280;54933;51.908;7.730;2023-07-20T08:37:10;100872.63;;;24.86;72.84
13709;BME280;54933;51.908;7.730;2023-07-20T08:39:35;100868.03;;;24.86;72.82
13709;BME280;54933;51.908;7.730;2023-07-20T08:42:01;100876.19;;;24.86;72.62
13709;BME280;54933;51.908;7.730;2023-07-20T08:44:29;100878.06;;;24.86;72.80
13709;BME280;54933;51.908;7.730;2023-07-20T08:46:57;100883.50;;;24.86;72.74
13709;BME280;54933;51.908;7.730;2023-07-20T08:49:23;100875.34;;;24.86;72.75
13709;BME280;54933;51.908;7.730;2023-07-20T08:51:49;100875.94;;;24.88;72.96
13709;BME280;54933;51.908;7.730;2023-07-20T08:54:16;100874.28;;;24.87;72.70
13709;BME280;54933;51.908;7.730;2023-07-20T08:56:42;100868.84;;;24.87;72.72
13709;BME280;54933;51.908;7.730;2023-07-20T08:59:08;100874.28;;;24.87;72.60
13709;BME280;54933;51.908;7.730;2023-07-20T09:01:36;100879.72;;;24.87;72.88
13709;BME280;54933;51.908;7.730;2023-07-20T09:04:04;100867.78;;;24.88;72.90
13709;BME280;54933;51.908;7.730;2023-07-20T09:06:29;100865.88;;;24.88;73.36
13709;BME280;54933;51.908;7.730;2023-07-20T09:08:55;100875.72;;;24.89;72.94
13709;BME280;54933;51.908;7.730;2023-07-20T09:11:20;100879.22;;;24.90;73.04
13709;BME280;54933;51.908;7.730;2023-07-20T09:13:45;100875.72;;;24.89;73.15
13709;BME280;54933;51.908;7.730;2023-07-20T09:16:13;100877.59;;;24.89;73.09
13709;BME280;54933;51.908;7.730;2023-07-20T09:18:39;100878.44;;;24.89;73.14
13709;BME280;54933;51.908;7.730;2023-07-20T09:21:05;100875.47;;;24.91;73.19
13709;BME280;54933;51.908;7.730;2023-07-20T09:23:35;100877.34;;;24.90;73.34
13709;BME280;54933;51.908;7.730;2023-07-20T09:26:10;100878.19;;;24.91;73.14
13709;BME280;54933;51.908;7.730;2023-07-20T09:28:42;100876.28;;;24.91;73.17
13709;BME280;54933;51.908;7.730;2023-07-20T09:31:19;100878.19;;;24.91;73.24
13709;BME280;54933;51.908;7.730;2023-07-20T09:33:45;100875.47;;;24.91;73.25
13709;BME280;54933;51.908;7.730;2023-07-20T09:36:10;100879.00;;;24.91;73.18
13709;BME280;54933;51.908;7.730;2023-07-20T09:38:41;100880.91;;;24.91;73.17
13709;BME280;54933;51.908;7.730;2023-07-20T09:41:07;100882.53;;;24.92;73.48
13709;BME280;54933;51.908;7.730;2023-07-20T09:43:34;100880.91;;;24.91;73.31
13709;BME280;54933;51.908;7.730;2023-07-20T09:46:00;100874.63;;;24.90;73.29
13709;BME280;54933;51.908;7.730;2023-07-20T09:48:25;100877.94;;;24.92;73.31
13709;BME280;54933;51.908;7.730;2023-07-20T09:50:53;100877.09;;;24.92;73.31
13709;BME280;54933;51.908;7.730;2023-07-20T09:53:19;100876.28;;;24.91;73.12
13709;BME280;54933;51.908;7.730;2023-07-20T09:55:48;100876.28;;;24.91;73.39
13709;BME280;54933;51.908;7.730;2023-07-20T09:58:14;100877.09;;;24.92;73.27
13709;BME280;54933;51.908;7.730;2023-07-20T10:00:41;100871.66;;;24.92;73.15
13709;BME280;54933;51.908;7.730;2023-07-20T10:03:14;100874.38;;;24.92;73.15
13709;BME280;54933;51.908;7.730;2023-07-20T10:05:44;100874.38;;;24.92;72.95
13709;BME280;54933;51.908;7.730;2023-07-20T10:08:12;100880.91;;;24.91;72.99
13709;BME280;54933;51.908;7.730;2023-07-20T10:10:40;100876.50;;;24.90;73.19
13709;BME280;54933;51.908;7.730;2023-07-20T10:13:10;100882.78;;;24.90;73.07
13709;BME280;54933;51.908;7.730;2023-07-20T10:15:47;100879.22;;;24.90;72.95
13709;BME280;54933;51.908;7.730;2023-07-20T10:18:25;100880.91;;;24.91;72.84
13709;BME280;54933;51.908;7.730;2023-07-20T10:20:54;100882.53;;;24.92;72.94
13709;BME280;54933;51.908;7.730;2023-07-20T10:23:21;100880.91;;;24.91;72.79
13709;BME280;54933;51.908;7.730;2023-07-20T10:25:47;100879.22;;;24.90;72.76
13709;BME280;54933;51.908;7.730;2023-07-20T10:28:13;100873.00;;;24.89;72.66
13709;BME280;54933;51.908;7.730;2023-07-20T10:30:39;100873.78;;;24.90;72.40
13709;BME280;54933;51.908;7.730;2023-07-20T10:33:05;100873.78;;;24.90;72.51
13709;BME280;54933;51.908;7.730;2023-07-20T10:35:50;100867.31;;;24.91;72.44
13709;BME280;54933;51.908;7.730;2023-07-20T10:38:15;100862.91;;;24.90;72.47
13709;BME280;54933;51.908;7.730;2023-07-20T10:40:41;100867.56;;;24.89;72.49
13709;BME280;54933;51.908;7.730;2023-07-20T10:43:08;100867.56;;;24.89;72.23
13709;BME280;54933;51.908;7.730;2023-07-20T10:45:39;100866.47;;;24.90;72.43
13709;BME280;54933;51.908;7.730;2023-07-20T10:48:21;100870.84;;;24.91;71.83
13709;BME280;54933;51.908;7.730;2023-07-20T10:51:13;100863.75;;;24.90;72.00
13709;BME280;54933;51.908;7.730;2023-07-20T10:53:39;100861.88;;;24.91;72.16
13709;BME280;54933;51.908;7.730;2023-07-20T10:56:11;100855.34;;;24.92;72.22
13709;BME280;54933;51.908;7.730;2023-07-20T10:58:36;100855.34;;;24.92;72.18
13709;BME280;54933;51.908;7.730;2023-07-20T11:01:03;100857.03;;;24.93;72.32
13709;BME280;54933;51.908;7.730;2023-07-20T11:03:32;100851.59;;;24.93;72.43
13709;BME280;54933;51.908;7.730;2023-07-20T11:05:58;100849.69;;;24.93;72.33
13709;BME280;54933;51.908;7.730;2023-07-20T11:08:40;100847.78;;;24.94;72.40
13709;BME280;54933;51.908;7.730;2023-07-20T11:11:22;100844.25;;;24.93;72.49
13709;BME280;54933;51.908;7.730;2023-07-20T11:13:59;100848.63;;;24.94;72.57
13709;BME280;54933;51.908;7.730;2023-07-20T11:16:36;100842.13;;;24.95;72.55
13709;BME280;54933;51.908;7.730;2023-07-20T11:19:03;100845.91;;;24.94;72.74
13709;BME280;54933;51.908;7.730;2023-07-20T11:21:29;100842.34;;;24.94;72.48
13709;BME280;54933;51.908;7.730;2023-07-20T11:23:56;100841.28;;;24.95;73.55
13709;BME280;54933;51.908;7.730;2023-07-20T11:26:21;100837.75;;;24.94;72.71
13709;BME280;54933;51.908;7.730;2023-07-20T11:28:50;100838.56;;;24.95;72.88
13709;BME280;54933;51.908;7.730;2023-07-20T11:31:17;100843.19;;;24.94;72.42
13709;BME280;54933;51.908;7.730;2023-07-20T11:33:42;100835.84;;;24.95;73.00
13709;BME280;54933;51.908;7.730;2023-07-20T11:36:10;100840.22;;;24.96;73.37
13709;BME280;54933;51.908;7.730;2023-07-20T11:38:35;100837.75;;;24.94;73.01
13709;BME280;54933;51.908;7.730;2023-07-20T11:41:03;100834.78;;;24.96;73.05
13709;BME280;54933;51.908;7.730;2023-07-20T11:43:29;100831.00;;;24.97;73.17
13709;BME280;54933;51.908;7.730;2023-07-20T11:45:54;100832.88;;;24.96;73.06
13709;BME280;54933;51.908;7.730;2023-07-20T11:48:20;100837.50;;;24.96;73.05
13709;BME280;54933;51.908;7.730;2023-07-20T11:50:45;100819.28;;;24.96;73.08
13709;BME280;54933;51.908;7.730;2023-07-20T11:53:11;100829.34;;;24.96;73.18
13709;BME280;54933;51.908;7.730;2023-07-20T11:55:38;100829.34;;;24.96;73.19
13709;BME280;54933;51.908;7.730;2023-07-20T11:58:07;100829.91;;;24.98;73.28
13709;BME280;54933;51.908;7.730;2023-07-20T12:00:34;100820.97;;;24.97;73.25
13709;BME280;54933;51.908;7.730;2023-07-20T12:03:00;100820.13;;;24.97;73.12
13709;BME280;54933;51.908;7.730;2023-07-20T12:05:26;100821.75;;;24.98;72.88
13709;BME280;54933;51.908;7.730;2023-07-20T12:07:51;100822.00;;;24.96;72.88
13709;BME280;54933;51.908;7.730;2023-07-20T12:10:24;100815.75;;;24.96;72.76
13709;BME280;54933;51.908;7.730;2023-07-20T12:12:49;100818.47;;;24.96;72.52
13709;BME280;54933;51.908;7.730;2023-07-20T12:15:16;100818.47;;;24.96;72.45
13709;BME280;54933;51.908;7.730;2023-07-20T12:17:46;100821.19;;;24.96;72.25
13709;BME280;54933;51.908;7.730;2023-07-20T12:20:11;100810.09;;;24.97;72.26
13709;BME280;54933;51.908;7.730;2023-07-20T12:22:40;100811.97;;;24.97;72.36
13709;BME280;54933;51.908;7.730;2023-07-20T12:25:06;100802.16;;;24.96;72.07
13709;BME280;54933;51.908;7.730;2023-07-20T12:27:35;100789.38;;;24.96;72.34
13709;BME280;54933;51.908;7.730;2023-07-20T12:30:01;100801.09;;;24.97;72.24
13709;BME280;54933;51.908;7.730;2023-07-20T12:32:27;100802.16;;;24.96;71.99
13709;BME280;54933;51.908;7.730;2023-07-20T12:34:53;100804.66;;;24.97;72.00
13709;BME280;54933;51.908;7.730;2023-07-20T12:37:18;100794.81;;;24.96;71.61
13709;BME280;54933;51.908;7.730;2023-07-20T12:39:43;100801.94;;;24.97;71.88
13709;BME280;54933;51.908;7.730;2023-07-20T12:42:12;100797.53;;;24.96;72.15
13709;BME280;54933;51.908;7.730;2023-07-20T12:44:37;100798.38;;;24.97;71.86
13709;BME280;54933;51.908;7.730;2023-07-20T12:47:02;100791.84;;;24.98;71.93
13709;BME280;54933;51.908;7.730;2023-07-20T12:49:28;100789.13;;;24.98;71.98
13709;BME280;54933;51.908;7.730;2023-07-20T12:51:53;100791.63;;;24.99;72.04